createdAt,value
2023-06-10T00:00:53.959Z,490.00
2023-06-10T00:01:54.975Z,491.00
2023-06-10T00:02:55.058Z,492.00
2023-06-10T00:03:54.270Z,493.00
2023-06-10T00:04:54.992Z,494.00
2023-06-10T00:05:53.950Z,494.00
2023-06-10T00:06:54.943Z,493.00
2023-06-10T00:07:53.917Z,493.00
2023-06-10T00:08:54.913Z,494.00
2023-06-10T00:09:54.917Z,493.00
2023-06-10T00:10:54.934Z,491.00
2023-06-10T00:11:54.889Z,492.00
2023-06-10T00:12:54.896Z,492.00
2023-06-10T00:13:54.879Z,492.00
2023-06-10T00:14:54.874Z,491.00
2023-06-10T00:15:53.908Z,491.00
2023-06-10T00:16:54.888Z,493.00
2023-06-10T00:17:54.932Z,489.00
2023-06-10T00:18:54.890Z,488.00
2023-06-10T00:19:54.856Z,488.00
2023-06-10T00:20:54.852Z,491.00
2023-06-10T00:21:57.339Z,492.00
2023-06-10T00:22:54.916Z,492.00
2023-06-10T00:23:54.969Z,491.00
2023-06-10T00:24:54.900Z,488.00
2023-06-10T00:25:54.940Z,489.00
2023-06-10T00:26:54.893Z,487.00
2023-06-10T00:27:54.873Z,485.00
2023-06-10T00:28:53.852Z,485.00
2023-06-10T00:29:53.855Z,483.00
2023-06-10T00:30:53.844Z,485.00
2023-06-10T00:31:54.881Z,486.00
2023-06-10T00:32:54.920Z,492.00
2023-06-10T00:33:54.851Z,489.00
2023-06-10T00:34:54.824Z,490.00
2023-06-10T00:35:53.817Z,490.00
2023-06-10T00:36:54.808Z,490.00
2023-06-10T00:37:54.827Z,488.00
2023-06-10T00:38:54.803Z,488.00
2023-06-10T00:39:54.793Z,490.00
2023-06-10T00:40:54.801Z,491.00
2023-06-10T00:41:54.772Z,488.00
2023-06-10T00:42:54.775Z,490.00
2023-06-10T00:43:53.754Z,491.00
2023-06-10T00:44:54.821Z,491.00
2023-06-10T00:45:53.752Z,493.00
2023-06-10T00:46:54.772Z,493.00
2023-06-10T00:47:54.834Z,494.00
2023-06-10T00:48:53.768Z,494.00
2023-06-10T00:49:54.793Z,493.00
2023-06-10T00:50:54.789Z,493.00
2023-06-10T00:51:54.811Z,490.00
2023-06-10T00:52:55.801Z,489.00
2023-06-10T00:53:53.967Z,490.00
2023-06-10T00:54:54.966Z,490.00
2023-06-10T00:55:55.044Z,490.00
2023-06-10T00:56:55.093Z,491.00
2023-06-10T00:57:55.096Z,491.00
2023-06-10T00:58:55.203Z,489.00
2023-06-10T00:59:55.225Z,488.00
2023-06-10T01:00:54.268Z,487.00
2023-06-10T01:01:55.296Z,489.00
2023-06-10T01:02:54.426Z,491.00
2023-06-10T01:03:54.402Z,492.00
2023-06-10T01:04:54.434Z,494.00
2023-06-10T01:05:55.835Z,491.00
2023-06-10T01:06:54.611Z,490.00
2023-06-10T01:07:55.543Z,492.00
2023-06-10T01:08:55.599Z,490.00
2023-06-10T01:09:55.669Z,490.00
2023-06-10T01:10:55.662Z,492.00
2023-06-10T01:11:55.762Z,490.00
2023-06-10T01:12:55.794Z,491.00
2023-06-10T01:13:55.795Z,492.00
2023-06-10T01:14:55.919Z,497.00
2023-06-10T01:15:55.904Z,497.00
2023-06-10T01:16:56.046Z,497.00
2023-06-10T01:17:56.061Z,495.00
2023-06-10T01:18:56.091Z,492.00
2023-06-10T01:19:55.106Z,490.00
2023-06-10T01:20:56.127Z,493.00
2023-06-10T01:21:55.182Z,495.00
2023-06-10T01:22:56.244Z,500.00
2023-06-10T01:23:55.502Z,500.00
2023-06-10T01:24:56.362Z,500.00
2023-06-10T01:25:56.383Z,500.00
2023-06-10T01:26:56.416Z,496.00
2023-06-10T01:27:55.494Z,497.00
2023-06-10T01:28:56.517Z,500.00
2023-06-10T01:29:56.576Z,497.00
2023-06-10T01:30:56.669Z,498.00
2023-06-10T01:31:56.715Z,500.00
2023-06-10T01:32:55.722Z,501.00
2023-06-10T01:33:56.727Z,502.00
2023-06-10T01:34:55.741Z,502.00
2023-06-10T01:35:55.825Z,502.00
2023-06-10T01:36:56.840Z,500.00
2023-06-10T01:37:55.847Z,500.00
2023-06-10T01:38:56.954Z,501.00
2023-06-10T01:39:55.983Z,500.00
2023-06-10T01:40:57.007Z,502.00
2023-06-10T01:41:56.045Z,497.00
2023-06-10T01:42:56.100Z,502.00
2023-06-10T01:43:57.157Z,503.00
2023-06-10T01:44:57.180Z,507.00
2023-06-10T01:45:57.230Z,506.00
2023-06-10T01:46:57.411Z,503.00
2023-06-10T01:47:57.390Z,504.00
2023-06-10T01:48:57.353Z,506.00
2023-06-10T01:49:57.431Z,508.00
2023-06-10T01:50:57.463Z,507.00
2023-06-10T01:51:56.470Z,512.00
2023-06-10T01:52:57.577Z,512.00
2023-06-10T01:53:57.546Z,509.00
2023-06-10T01:54:57.593Z,507.00
2023-06-10T01:55:57.663Z,507.00
2023-06-10T01:56:57.679Z,509.00
2023-06-10T01:57:57.698Z,508.00
2023-06-10T01:58:57.717Z,506.00
2023-06-10T01:59:57.776Z,507.00
2023-06-10T02:00:56.930Z,505.00
2023-06-10T02:01:57.829Z,505.00
2023-06-10T02:02:57.932Z,507.00
2023-06-10T02:03:58.033Z,507.00
2023-06-10T02:04:57.930Z,508.00
2023-06-10T02:05:57.979Z,507.00
2023-06-10T02:06:58.068Z,508.00
2023-06-10T02:07:58.040Z,509.00
2023-06-10T02:08:58.179Z,506.00
2023-06-10T02:09:58.182Z,509.00
2023-06-10T02:10:58.206Z,504.00
2023-06-10T02:11:58.256Z,505.00
2023-06-10T02:12:57.279Z,501.00
2023-06-10T02:13:58.294Z,503.00
2023-06-10T02:14:58.342Z,500.00
2023-06-10T02:15:57.446Z,501.00
2023-06-10T02:16:57.524Z,500.00
2023-06-10T02:17:58.475Z,502.00
2023-06-10T02:18:58.601Z,500.00
2023-06-10T02:19:58.584Z,500.00
2023-06-10T02:20:58.589Z,502.00
2023-06-10T02:21:58.699Z,503.00
2023-06-10T02:22:58.668Z,502.00
2023-06-10T02:23:58.735Z,503.00
2023-06-10T02:24:58.786Z,503.00
2023-06-10T02:25:58.798Z,500.00
2023-06-10T02:26:58.822Z,500.00
2023-06-10T02:27:58.831Z,501.00
2023-06-10T02:28:58.905Z,502.00
2023-06-10T02:29:57.900Z,502.00
2023-06-10T02:30:58.927Z,502.00
2023-06-10T02:31:58.986Z,501.00
2023-06-10T02:32:59.009Z,500.00
2023-06-10T02:33:58.994Z,501.00
2023-06-10T02:34:58.089Z,500.00
2023-06-10T02:35:59.076Z,499.00
2023-06-10T02:36:59.144Z,499.00
2023-06-10T02:37:59.213Z,501.00
2023-06-10T02:38:59.213Z,498.00
2023-06-10T02:39:59.245Z,499.00
2023-06-10T02:40:59.269Z,498.00
2023-06-10T02:41:59.325Z,496.00
2023-06-10T02:42:58.386Z,499.00
2023-06-10T02:43:59.375Z,498.00
2023-06-10T02:44:59.420Z,496.00
2023-06-10T02:45:59.505Z,494.00
2023-06-10T02:46:59.473Z,495.00
2023-06-10T02:47:59.543Z,496.00
2023-06-10T02:48:59.493Z,497.00
2023-06-10T02:49:59.577Z,497.00
2023-06-10T02:50:59.584Z,499.00
2023-06-10T02:51:58.596Z,502.00
2023-06-10T02:52:59.622Z,501.00
2023-06-10T02:53:59.643Z,505.00
2023-06-10T02:54:59.781Z,502.00
2023-06-10T02:55:59.711Z,501.00
2023-06-10T02:56:59.766Z,498.00
2023-06-10T02:57:59.749Z,495.00
2023-06-10T02:58:59.784Z,501.00
2023-06-10T02:59:59.803Z,499.00
2023-06-10T03:00:59.868Z,503.00
2023-06-10T03:01:59.914Z,498.00
2023-06-10T03:02:59.882Z,501.00
2023-06-10T03:03:58.908Z,500.00
2023-06-10T03:05:00.048Z,499.00
2023-06-10T03:05:59.992Z,502.00
2023-06-10T03:07:00.014Z,498.00
2023-06-10T03:08:00.045Z,497.00
2023-06-10T03:09:00.057Z,497.00
2023-06-10T03:10:00.139Z,501.00
2023-06-10T03:11:00.089Z,503.00
2023-06-10T03:12:00.150Z,503.00
2023-06-10T03:13:00.129Z,504.00
2023-06-10T03:13:59.156Z,503.00
2023-06-10T03:15:00.188Z,500.00
2023-06-10T03:16:00.280Z,502.00
2023-06-10T03:17:00.204Z,501.00
2023-06-10T03:18:00.237Z,502.00
2023-06-10T03:18:59.315Z,505.00
2023-06-10T03:20:00.308Z,503.00
2023-06-10T03:21:00.351Z,500.00
2023-06-10T03:22:00.301Z,499.00
2023-06-10T03:23:00.355Z,503.00
2023-06-10T03:23:59.417Z,504.00
2023-06-10T03:25:00.423Z,502.00
2023-06-10T03:26:00.447Z,503.00
2023-06-10T03:27:00.425Z,502.00
2023-06-10T03:28:00.488Z,504.00
2023-06-10T03:28:59.455Z,502.00
2023-06-10T03:29:59.472Z,503.00
2023-06-10T03:30:59.551Z,503.00
2023-06-10T03:31:59.497Z,500.00
2023-06-10T03:32:59.658Z,500.00
2023-06-10T03:34:00.576Z,500.00
2023-06-10T03:35:00.574Z,502.00
2023-06-10T03:36:00.602Z,502.00
2023-06-10T03:37:00.638Z,502.00
2023-06-10T03:38:00.592Z,504.00
2023-06-10T03:39:00.650Z,506.00
2023-06-10T03:39:59.633Z,507.00
2023-06-10T03:41:00.713Z,507.00
2023-06-10T03:41:59.723Z,505.00
2023-06-10T03:43:00.662Z,507.00
2023-06-10T03:43:59.691Z,506.00
2023-06-10T03:45:00.772Z,505.00
2023-06-10T03:46:00.737Z,506.00
2023-06-10T03:46:59.745Z,507.00
2023-06-10T03:47:59.838Z,506.00
2023-06-10T03:48:59.778Z,506.00
2023-06-10T03:50:00.761Z,506.00
2023-06-10T03:51:00.780Z,505.00
2023-06-10T03:52:00.803Z,503.00
2023-06-10T03:52:59.827Z,503.00
2023-06-10T03:54:00.820Z,503.00
2023-06-10T03:55:00.945Z,504.00
2023-06-10T03:55:59.865Z,505.00
2023-06-10T03:56:59.872Z,504.00
2023-06-10T03:57:59.879Z,506.00
2023-06-10T03:59:00.974Z,508.00
2023-06-10T04:00:00.938Z,507.00
2023-06-10T04:00:59.940Z,506.00
2023-06-10T04:01:59.992Z,507.00
2023-06-10T04:03:01.017Z,508.00
2023-06-10T04:04:00.937Z,504.00
2023-06-10T04:04:59.964Z,504.00
2023-06-10T04:06:01.037Z,501.00
2023-06-10T04:07:01.003Z,499.00
2023-06-10T04:08:01.021Z,501.00
2023-06-10T04:09:01.056Z,501.00
2023-06-10T04:10:01.083Z,507.00
2023-06-10T04:11:00.137Z,502.00
2023-06-10T04:12:01.118Z,502.00
2023-06-10T04:13:00.140Z,504.00
2023-06-10T04:14:01.099Z,506.00
2023-06-10T04:15:01.117Z,507.00
2023-06-10T04:16:01.123Z,505.00
2023-06-10T04:17:01.163Z,506.00
2023-06-10T04:18:01.232Z,505.00
2023-06-10T04:19:01.186Z,502.00
2023-06-10T04:20:01.246Z,503.00
2023-06-10T04:21:00.199Z,501.00
2023-06-10T04:22:00.243Z,501.00
2023-06-10T04:23:01.238Z,502.00
2023-06-10T04:24:00.271Z,502.00
2023-06-10T04:25:01.259Z,503.00
2023-06-10T04:26:00.250Z,502.00
2023-06-10T04:27:00.300Z,502.00
2023-06-10T04:28:01.326Z,504.00
2023-06-10T04:29:01.382Z,504.00
2023-06-10T04:30:01.360Z,503.00
2023-06-10T04:31:01.389Z,500.00
2023-06-10T04:32:01.434Z,500.00
2023-06-10T04:33:01.454Z,502.00
2023-06-10T04:34:01.455Z,504.00
2023-06-10T04:35:00.563Z,505.00
2023-06-10T04:36:01.555Z,505.00
2023-06-10T04:37:01.545Z,505.00
2023-06-10T04:38:00.584Z,506.00
2023-06-10T04:39:01.612Z,509.00
2023-06-10T04:40:00.678Z,509.00
2023-06-10T04:41:01.687Z,507.00
2023-06-10T04:42:01.713Z,503.00
2023-06-10T04:43:00.708Z,500.00
2023-06-10T04:44:01.731Z,502.00
2023-06-10T04:45:01.769Z,503.00
2023-06-10T04:46:00.844Z,501.00
2023-06-10T04:47:01.860Z,503.00
2023-06-10T04:48:01.918Z,502.00
2023-06-10T04:49:01.842Z,502.00
2023-06-10T04:50:01.923Z,502.00
2023-06-10T04:51:00.932Z,503.00
2023-06-10T04:52:01.955Z,501.00
2023-06-10T04:53:02.049Z,503.00
2023-06-10T04:54:02.020Z,501.00
2023-06-10T04:55:02.076Z,499.00
2023-06-10T04:56:02.124Z,503.00
2023-06-10T04:57:01.128Z,503.00
2023-06-10T04:58:02.178Z,501.00
2023-06-10T04:59:02.224Z,501.00
2023-06-10T05:00:01.325Z,502.00
2023-06-10T05:01:01.302Z,499.00
2023-06-10T05:02:02.355Z,498.00
2023-06-10T05:03:02.606Z,499.00
2023-06-10T05:04:02.456Z,497.00
2023-06-10T05:05:02.489Z,496.00
2023-06-10T05:06:01.530Z,501.00
2023-06-10T05:07:02.575Z,500.00
2023-06-10T05:08:02.624Z,500.00
2023-06-10T05:09:02.668Z,499.00
2023-06-10T05:10:01.710Z,499.00
2023-06-10T05:11:02.832Z,502.00
2023-06-10T05:12:02.805Z,499.00
2023-06-10T05:13:02.857Z,498.00
2023-06-10T05:14:02.917Z,497.00
2023-06-10T05:15:02.937Z,500.00
2023-06-10T05:16:02.074Z,499.00
2023-06-10T05:17:03.045Z,501.00
2023-06-10T05:18:03.151Z,501.00
2023-06-10T05:19:05.609Z,503.00
2023-06-10T05:20:03.112Z,502.00
2023-06-10T05:21:03.112Z,501.00
2023-06-10T05:22:02.136Z,506.00
2023-06-10T05:23:02.094Z,504.00
2023-06-10T05:24:02.196Z,505.00
2023-06-10T05:25:02.115Z,507.00
2023-06-10T05:26:03.084Z,506.00
2023-06-10T05:27:03.117Z,506.00
2023-06-10T05:28:02.167Z,507.00
2023-06-10T05:29:03.215Z,509.00
2023-06-10T05:30:03.248Z,508.00
2023-06-10T05:31:02.301Z,508.00
2023-06-10T05:32:03.384Z,504.00
2023-06-10T05:33:03.409Z,502.00
2023-06-10T05:34:02.432Z,502.00
2023-06-10T05:35:02.452Z,501.00
2023-06-10T05:36:03.493Z,500.00
2023-06-10T05:37:03.580Z,500.00
2023-06-10T05:38:04.085Z,502.00
2023-06-10T05:39:03.624Z,500.00
2023-06-10T05:40:02.738Z,501.00
2023-06-10T05:41:02.724Z,501.00
2023-06-10T05:42:03.752Z,499.00
2023-06-10T05:43:03.806Z,499.00
2023-06-10T05:44:03.851Z,498.00
2023-06-10T05:45:02.965Z,502.00
2023-06-10T05:46:04.015Z,503.00
2023-06-10T05:47:04.001Z,503.00
2023-06-10T05:48:04.072Z,505.00
2023-06-10T05:49:04.082Z,503.00
2023-06-10T05:50:04.131Z,502.00
2023-06-10T05:51:03.205Z,499.00
2023-06-10T05:52:03.200Z,501.00
2023-06-10T05:53:04.247Z,500.00
2023-06-10T05:54:04.315Z,503.00
2023-06-10T05:55:04.347Z,503.00
2023-06-10T05:56:04.386Z,502.00
2023-06-10T05:57:03.467Z,503.00
2023-06-10T05:58:03.466Z,503.00
2023-06-10T05:59:04.547Z,504.00
2023-06-10T06:00:04.581Z,501.00
2023-06-10T06:01:04.683Z,500.00
2023-06-10T06:02:03.749Z,503.00
2023-06-10T06:03:04.766Z,503.00
2023-06-10T06:04:04.748Z,502.00
2023-06-10T06:05:04.936Z,499.00
2023-06-10T06:06:03.838Z,496.00
2023-06-10T06:07:03.892Z,495.00
2023-06-10T06:08:04.959Z,493.00
2023-06-10T06:09:04.995Z,491.00
2023-06-10T06:10:04.057Z,489.00
2023-06-10T06:11:05.077Z,489.00
2023-06-10T06:12:05.102Z,487.00
2023-06-10T06:13:05.163Z,490.00
2023-06-10T06:14:05.223Z,496.00
2023-06-10T06:15:05.305Z,497.00
2023-06-10T06:16:04.313Z,498.00
2023-06-10T06:17:05.401Z,498.00
2023-06-10T06:18:04.455Z,501.00
2023-06-10T06:19:05.414Z,501.00
2023-06-10T06:20:05.495Z,503.00
2023-06-10T06:21:05.533Z,503.00
2023-06-10T06:22:05.618Z,504.00
2023-06-10T06:23:05.636Z,506.00
2023-06-10T06:24:05.767Z,505.00
2023-06-10T06:25:04.726Z,502.00
2023-06-10T06:26:08.718Z,501.00
2023-06-10T06:27:05.736Z,501.00
2023-06-10T06:28:05.701Z,503.00
2023-06-10T06:29:04.690Z,503.00
2023-06-10T06:30:04.754Z,504.00
2023-06-10T06:31:05.722Z,504.00
2023-06-10T06:32:05.673Z,504.00
2023-06-10T06:33:04.844Z,503.00
2023-06-10T06:34:05.658Z,506.00
2023-06-10T06:35:05.633Z,506.00
2023-06-10T06:36:05.672Z,507.00
2023-06-10T06:37:05.640Z,506.00
2023-06-10T06:38:05.656Z,507.00
2023-06-10T06:39:04.647Z,509.00
2023-06-10T06:40:05.620Z,508.00
2023-06-10T06:41:04.647Z,505.00
2023-06-10T06:42:04.615Z,505.00
2023-06-10T06:43:05.611Z,503.00
2023-06-10T06:44:05.730Z,505.00
2023-06-10T06:45:05.594Z,506.00
2023-06-10T06:46:05.597Z,505.00
2023-06-10T06:47:05.575Z,507.00
2023-06-10T06:48:05.652Z,508.00
2023-06-10T06:49:05.563Z,505.00
2023-06-10T06:50:04.539Z,505.00
2023-06-10T06:51:05.602Z,505.00
2023-06-10T06:52:05.545Z,509.00
2023-06-10T06:53:05.524Z,507.00
2023-06-10T06:54:05.570Z,504.00
2023-06-10T06:55:05.625Z,502.00
2023-06-10T06:56:05.673Z,503.00
2023-06-10T06:57:05.666Z,505.00
2023-06-10T06:58:05.711Z,507.00
2023-06-10T06:59:05.798Z,506.00
2023-06-10T07:00:05.748Z,506.00
2023-06-10T07:01:05.797Z,507.00
2023-06-10T07:02:04.799Z,509.00
2023-06-10T07:03:05.911Z,506.00
2023-06-10T07:04:04.867Z,506.00
2023-06-10T07:05:05.968Z,504.00
2023-06-10T07:06:05.933Z,502.00
2023-06-10T07:07:04.952Z,501.00
2023-06-10T07:08:05.954Z,503.00
2023-06-10T07:09:05.015Z,504.00
2023-06-10T07:10:06.021Z,502.00
2023-06-10T07:11:05.051Z,502.00
2023-06-10T07:12:06.087Z,499.00
2023-06-10T07:13:06.083Z,501.00
2023-06-10T07:14:06.111Z,502.00
2023-06-10T07:15:06.226Z,503.00
2023-06-10T07:16:05.256Z,505.00
2023-06-10T07:17:06.285Z,508.00
2023-06-10T07:18:06.235Z,508.00
2023-06-10T07:19:06.587Z,506.00
2023-06-10T07:20:06.248Z,502.00
2023-06-10T07:21:05.278Z,504.00
2023-06-10T07:22:06.333Z,503.00
2023-06-10T07:23:06.330Z,503.00
2023-06-10T07:24:06.355Z,502.00
2023-06-10T07:25:06.492Z,502.00
2023-06-10T07:26:05.367Z,502.00
2023-06-10T07:27:06.378Z,503.00
2023-06-10T07:28:05.409Z,504.00
2023-06-10T07:29:06.401Z,504.00
2023-06-10T07:30:05.405Z,505.00
2023-06-10T07:31:06.453Z,505.00
2023-06-10T07:32:06.426Z,503.00
2023-06-10T07:33:06.465Z,503.00
2023-06-10T07:34:06.438Z,502.00
2023-06-10T07:35:05.453Z,505.00
2023-06-10T07:36:06.480Z,504.00
2023-06-10T07:37:06.679Z,504.00
2023-06-10T07:38:06.506Z,502.00
2023-06-10T07:39:06.502Z,502.00
2023-06-10T07:40:06.541Z,502.00
2023-06-10T07:41:06.559Z,498.00
2023-06-10T07:42:06.580Z,500.00
2023-06-10T07:43:06.604Z,500.00
2023-06-10T07:44:06.627Z,502.00
2023-06-10T07:45:06.862Z,503.00
2023-06-10T07:46:06.775Z,504.00
2023-06-10T07:47:06.632Z,505.00
2023-06-10T07:48:06.707Z,505.00
2023-06-10T07:49:06.651Z,506.00
2023-06-10T07:50:06.638Z,505.00
2023-06-10T07:51:06.677Z,503.00
2023-06-10T07:52:06.752Z,504.00
2023-06-10T07:53:05.706Z,505.00
2023-06-10T07:54:06.697Z,502.00
2023-06-10T07:55:06.795Z,501.00
2023-06-10T07:56:05.698Z,508.00
2023-06-10T07:57:05.864Z,504.00
2023-06-10T07:58:05.763Z,506.00
2023-06-10T07:59:05.781Z,505.00
2023-06-10T08:00:06.799Z,507.00
2023-06-10T08:01:05.781Z,506.00
2023-06-10T08:02:05.808Z,504.00
2023-06-10T08:03:06.893Z,502.00
2023-06-10T08:04:06.930Z,502.00
2023-06-10T08:05:06.924Z,503.00
2023-06-10T08:06:05.856Z,501.00
2023-06-10T08:07:05.869Z,502.00
2023-06-10T08:08:06.912Z,500.00
2023-06-10T08:09:06.909Z,499.00
2023-06-10T08:10:05.909Z,498.00
2023-06-10T08:11:05.935Z,501.00
2023-06-10T08:12:06.987Z,502.00
2023-06-10T08:13:06.978Z,496.00
2023-06-10T08:14:06.000Z,497.00
2023-06-10T08:15:07.157Z,495.00
2023-06-10T08:16:06.066Z,495.00
2023-06-10T08:17:07.100Z,496.00
2023-06-10T08:18:06.134Z,494.00
2023-06-10T08:19:07.114Z,495.00
2023-06-10T08:20:07.117Z,494.00
2023-06-10T08:21:06.166Z,492.00
2023-06-10T08:22:06.218Z,493.00
2023-06-10T08:23:07.281Z,491.00
2023-06-10T08:24:07.417Z,489.00
2023-06-10T08:25:07.675Z,489.00
2023-06-10T08:26:07.428Z,488.00
2023-06-10T08:27:07.446Z,488.00
2023-06-10T08:28:06.529Z,488.00
2023-06-10T08:29:07.525Z,487.00
2023-06-10T08:30:07.555Z,489.00
2023-06-10T08:31:07.615Z,490.00
2023-06-10T08:32:07.723Z,491.00
2023-06-10T08:33:07.703Z,492.00
2023-06-10T08:34:07.691Z,491.00
2023-06-10T08:35:07.957Z,489.00
2023-06-10T08:36:07.819Z,491.00
2023-06-10T08:37:07.827Z,494.00
2023-06-10T08:38:07.942Z,493.00
2023-06-10T08:39:07.925Z,494.00
2023-06-10T08:40:07.973Z,491.00
2023-06-10T08:41:08.075Z,490.00
2023-06-10T08:42:08.038Z,489.00
2023-06-10T08:43:08.175Z,491.00
2023-06-10T08:44:07.124Z,492.00
2023-06-10T08:45:07.305Z,494.00
2023-06-10T08:46:07.202Z,498.00
2023-06-10T08:47:08.185Z,499.00
2023-06-10T08:48:08.328Z,498.00
2023-06-10T08:49:08.420Z,499.00
2023-06-10T08:50:10.800Z,496.00
2023-06-10T08:51:08.298Z,494.00
2023-06-10T08:52:08.313Z,496.00
2023-06-10T08:53:08.266Z,496.00
2023-06-10T08:54:08.271Z,492.00
2023-06-10T08:55:08.511Z,493.00
2023-06-10T08:56:08.258Z,493.00
2023-06-10T08:57:08.347Z,493.00
2023-06-10T08:58:08.380Z,492.00
2023-06-10T08:59:07.364Z,491.00
2023-06-10T09:00:07.665Z,490.00
2023-06-10T09:01:07.498Z,491.00
2023-06-10T09:02:08.483Z,493.00
2023-06-10T09:03:08.530Z,492.00
2023-06-10T09:04:08.617Z,495.00
2023-06-10T09:05:07.552Z,495.00
2023-06-10T09:06:08.592Z,495.00
2023-06-10T09:07:07.652Z,497.00
2023-06-10T09:08:08.716Z,492.00
2023-06-10T09:09:08.717Z,490.00
2023-06-10T09:10:09.384Z,488.00
2023-06-10T09:11:08.821Z,485.00
2023-06-10T09:12:08.910Z,485.00
2023-06-10T09:13:08.913Z,485.00
2023-06-10T09:14:08.987Z,481.00
2023-06-10T09:15:09.028Z,485.00
2023-06-10T09:16:08.103Z,487.00
2023-06-10T09:17:09.087Z,489.00
2023-06-10T09:18:09.239Z,486.00
2023-06-10T09:19:09.327Z,486.00
2023-06-10T09:20:11.096Z,487.00
2023-06-10T09:21:09.266Z,490.00
2023-06-10T09:22:09.218Z,495.00
2023-06-10T09:23:08.224Z,495.00
2023-06-10T09:24:08.273Z,492.00
2023-06-10T09:25:08.257Z,487.00
2023-06-10T09:26:10.735Z,487.00
2023-06-10T09:27:09.521Z,485.00
2023-06-10T09:28:09.486Z,485.00
2023-06-10T09:29:09.520Z,484.00
2023-06-10T09:30:09.048Z,484.00
2023-06-10T09:31:08.798Z,482.00
2023-06-10T09:32:10.645Z,487.00
2023-06-10T09:33:08.772Z,485.00
2023-06-10T09:34:09.766Z,485.00
2023-06-10T09:35:09.796Z,486.00
2023-06-10T09:36:09.828Z,486.00
2023-06-10T09:37:09.869Z,487.00
2023-06-10T09:38:10.843Z,492.00
2023-06-10T09:39:08.987Z,492.00
2023-06-10T09:40:10.384Z,494.00
2023-06-10T09:41:10.085Z,495.00
2023-06-10T09:42:10.109Z,493.00
2023-06-10T09:43:10.099Z,492.00
2023-06-10T09:44:10.511Z,488.00
2023-06-10T09:45:10.249Z,490.00
2023-06-10T09:46:11.523Z,489.00
2023-06-10T09:47:10.241Z,489.00
2023-06-10T09:48:10.252Z,492.00
2023-06-10T09:49:10.224Z,492.00
2023-06-10T09:50:11.314Z,496.00
2023-06-10T09:51:10.311Z,496.00
2023-06-10T09:52:10.247Z,497.00
2023-06-10T09:53:10.236Z,497.00
2023-06-10T09:54:10.246Z,494.00
2023-06-10T09:55:10.254Z,496.00
2023-06-10T09:56:10.962Z,494.00
2023-06-10T09:57:10.393Z,494.00
2023-06-10T09:58:10.432Z,491.00
2023-06-10T09:59:10.428Z,491.00
2023-06-10T10:00:10.655Z,492.00
2023-06-10T10:01:10.603Z,491.00
2023-06-10T10:02:11.239Z,490.00
2023-06-10T10:03:10.653Z,493.00
2023-06-10T10:04:10.648Z,494.00
2023-06-10T10:05:11.108Z,493.00
2023-06-10T10:06:10.831Z,492.00
2023-06-10T10:07:10.785Z,492.00
2023-06-10T10:08:10.863Z,491.00
2023-06-10T10:09:10.916Z,492.00
2023-06-10T10:10:09.909Z,491.00
2023-06-10T10:11:11.007Z,490.00
2023-06-10T10:12:09.990Z,488.00
2023-06-10T10:13:11.031Z,489.00
2023-06-10T10:14:10.956Z,492.00
2023-06-10T10:15:11.366Z,495.00
2023-06-10T10:16:11.254Z,492.00
2023-06-10T10:17:11.320Z,489.00
2023-06-10T10:18:11.420Z,487.00
2023-06-10T10:19:10.315Z,485.00
2023-06-10T10:20:11.340Z,485.00
2023-06-10T10:21:11.380Z,486.00
2023-06-10T10:22:11.450Z,486.00
2023-06-10T10:23:11.524Z,484.00
2023-06-10T10:24:11.639Z,486.00
2023-06-10T10:25:11.862Z,487.00
2023-06-10T10:26:10.917Z,486.00
2023-06-10T10:27:11.709Z,486.00
2023-06-10T10:28:11.730Z,485.00
2023-06-10T10:29:11.720Z,486.00
2023-06-10T10:30:11.795Z,489.00
2023-06-10T10:31:11.947Z,490.00
2023-06-10T10:32:11.971Z,488.00
2023-06-10T10:33:11.985Z,484.00
2023-06-10T10:34:11.143Z,482.00
2023-06-10T10:35:11.240Z,484.00
2023-06-10T10:36:12.041Z,485.00
2023-06-10T10:37:12.136Z,488.00
2023-06-10T10:38:12.142Z,489.00
2023-06-10T10:39:11.156Z,490.00
2023-06-10T10:40:12.199Z,488.00
2023-06-10T10:41:12.229Z,489.00
2023-06-10T10:42:12.328Z,488.00
2023-06-10T10:43:12.354Z,481.00
2023-06-10T10:44:12.411Z,482.00
2023-06-10T10:45:12.703Z,481.00
2023-06-10T10:46:12.568Z,480.00
2023-06-10T10:47:12.465Z,480.00
2023-06-10T10:48:12.580Z,482.00
2023-06-10T10:49:12.615Z,483.00
2023-06-10T10:50:14.819Z,483.00
2023-06-10T10:51:11.630Z,480.00
2023-06-10T10:52:11.629Z,482.00
2023-06-10T10:53:12.588Z,481.00
2023-06-10T10:54:12.594Z,482.00
2023-06-10T10:55:11.658Z,479.00
2023-06-10T10:56:14.534Z,479.00
2023-06-10T10:57:11.621Z,479.00
2023-06-10T10:58:12.531Z,481.00
2023-06-10T10:59:12.536Z,480.00
2023-06-10T11:00:12.598Z,480.00
2023-06-10T11:01:12.520Z,481.00
2023-06-10T11:02:12.602Z,480.00
2023-06-10T11:03:12.679Z,479.00
2023-06-10T11:04:12.575Z,481.00
2023-06-10T11:05:12.057Z,480.00
2023-06-10T11:06:12.541Z,483.00
2023-06-10T11:07:12.470Z,486.00
2023-06-10T11:08:11.530Z,485.00
2023-06-10T11:09:11.472Z,481.00
2023-06-10T11:10:12.436Z,484.00
2023-06-10T11:11:12.436Z,483.00
2023-06-10T11:12:12.446Z,481.00
2023-06-10T11:13:11.419Z,484.00
2023-06-10T11:14:11.435Z,483.00
2023-06-10T11:15:11.685Z,483.00
2023-06-10T11:16:12.470Z,484.00
2023-06-10T11:17:11.406Z,484.00
2023-06-10T11:18:11.417Z,484.00
2023-06-10T11:19:12.389Z,486.00
2023-06-10T11:20:12.470Z,482.00
2023-06-10T11:21:12.395Z,483.00
2023-06-10T11:22:12.379Z,481.00
2023-06-10T11:23:12.375Z,479.00
2023-06-10T11:24:12.494Z,482.00
2023-06-10T11:25:12.485Z,484.00
2023-06-10T11:26:12.411Z,486.00
2023-06-10T11:27:12.422Z,484.00
2023-06-10T11:28:12.534Z,481.00
2023-06-10T11:29:12.541Z,483.00
2023-06-10T11:30:12.530Z,483.00
2023-06-10T11:31:12.592Z,483.00
2023-06-10T11:32:11.638Z,485.00
2023-06-10T11:33:12.744Z,486.00
2023-06-10T11:34:11.856Z,486.00
2023-06-10T11:35:12.937Z,483.00
2023-06-10T11:36:11.785Z,482.00
2023-06-10T11:37:12.800Z,481.00
2023-06-10T11:38:13.586Z,479.00
2023-06-10T11:39:12.815Z,480.00
2023-06-10T11:40:11.847Z,481.00
2023-06-10T11:41:12.824Z,481.00
2023-06-10T11:42:12.803Z,481.00
2023-06-10T11:43:11.809Z,479.00
2023-06-10T11:44:13.329Z,477.00
2023-06-10T11:45:12.059Z,477.00
2023-06-10T11:46:12.766Z,478.00
2023-06-10T11:47:12.762Z,478.00
2023-06-10T11:48:12.808Z,477.00
2023-06-10T11:49:11.777Z,475.00
2023-06-10T11:50:12.741Z,475.00
2023-06-10T11:51:11.763Z,474.00
2023-06-10T11:52:12.719Z,472.00
2023-06-10T11:53:12.733Z,473.00
2023-06-10T11:54:11.748Z,472.00
2023-06-10T11:55:13.063Z,475.00
2023-06-10T11:56:11.694Z,474.00
2023-06-10T11:57:11.701Z,477.00
2023-06-10T11:58:12.695Z,477.00
2023-06-10T11:59:12.672Z,476.00
2023-06-10T12:00:12.670Z,477.00
2023-06-10T12:01:13.289Z,474.00
2023-06-10T12:02:12.671Z,474.00
2023-06-10T12:03:12.866Z,476.00
2023-06-10T12:04:12.641Z,477.00
2023-06-10T12:05:11.939Z,477.00
2023-06-10T12:06:12.620Z,476.00
2023-06-10T12:07:12.618Z,478.00
2023-06-10T12:08:12.620Z,475.00
2023-06-10T12:09:23.484Z,475.00
2023-06-10T12:11:12.603Z,475.00
2023-06-10T12:12:11.585Z,472.00
2023-06-10T12:13:12.572Z,474.00
2023-06-10T12:14:11.572Z,475.00
2023-06-10T12:15:11.830Z,474.00
2023-06-10T12:16:12.562Z,471.00
2023-06-10T12:17:11.552Z,471.00
2023-06-10T12:18:11.554Z,470.00
2023-06-10T12:19:12.540Z,470.00
2023-06-10T12:20:12.505Z,474.00
2023-06-10T12:21:12.539Z,474.00
2023-06-10T12:22:11.509Z,474.00
2023-06-10T12:23:12.489Z,473.00
2023-06-10T12:24:12.907Z,473.00
2023-06-10T12:25:12.998Z,474.00
2023-06-10T12:26:12.483Z,476.00
2023-06-10T12:27:12.488Z,475.00
2023-06-10T12:28:12.527Z,474.00
2023-06-10T12:29:12.448Z,471.00
2023-06-10T12:30:12.771Z,473.00